Time;durP1;ratioP1;P1;durP2;ratioP2;P2;SDS_P1;SDS_P2;PMS_P1;PMS_P2;Temp;Humidity;BMP_temperature;BMP_pressure;BME280_temperature;BME280_humidity;BME280_pressure;Samples;Min_cycle;Max_cycle;Signal;HPM_P1;HPM_P2
2023/01/04 00:01:25;;;;;;;5.45;4.70;;;3.30;99.90;;;;;;4987926;28;20211;-67
2023/01/04 00:03:52;;;;;;;8.00;5.03;;;3.20;99.90;;;;;;4988215;28;20269;-68
2023/01/04 00:06:19;;;;;;;6.57;5.85;;;3.20;99.90;;;;;;4988188;28;20227;-68
2023/01/04 00:08:46;;;;;;;8.57;6.35;;;3.10;99.90;;;;;;4987501;28;20211;-68
2023/01/04 00:11:16;;;;;;;7.45;5.55;;;3.10;99.90;;;;;;4988254;28;20214;-68
2023/01/04 00:13:43;;;;;;;6.50;5.15;;;3.10;99.90;;;;;;4988042;28;20678;-68
2023/01/04 00:16:13;;;;;;;5.78;4.93;;;3.00;99.90;;;;;;4988147;28;20234;-69
2023/01/04 00:18:41;;;;;;;6.50;5.22;;;3.00;99.90;;;;;;4987659;28;20590;-69
2023/01/04 00:21:10;;;;;;;6.75;5.28;;;3.00;99.90;;;;;;4988506;28;20301;-68
2023/01/04 00:23:37;;;;;;;5.35;4.70;;;3.00;99.90;;;;;;4988049;28;20277;-68
2023/01/04 00:26:07;;;;;;;6.90;5.60;;;2.90;99.90;;;;;;4988118;28;20789;-68
2023/01/04 00:28:34;;;;;;;6.07;4.45;;;2.90;99.90;;;;;;4988126;28;20234;-68
2023/01/04 00:31:03;;;;;;;6.85;5.78;;;2.90;99.90;;;;;;4987687;28;20522;-69
2023/01/04 00:33:31;;;;;;;5.65;4.10;;;2.80;99.90;;;;;;4988503;28;20701;-68
2023/01/04 00:36:03;;;;;;;5.57;4.85;;;2.70;99.90;;;;;;4988656;28;20749;-68
2023/01/04 00:38:30;;;;;;;5.05;4.25;;;2.70;99.90;;;;;;4987582;28;20265;-68
2023/01/04 00:40:56;;;;;;;7.57;5.35;;;2.70;99.90;;;;;;4987778;28;20206;-68
2023/01/04 00:43:23;;;;;;;6.20;4.90;;;2.70;99.90;;;;;;4987400;28;20415;-68
2023/01/04 00:45:50;;;;;;;6.63;4.97;;;2.70;99.90;;;;;;4987878;28;20399;-68
2023/01/04 00:48:16;;;;;;;5.28;4.72;;;2.60;99.90;;;;;;4987573;28;20211;-68
2023/01/04 00:50:45;;;;;;;6.20;4.50;;;2.70;99.90;;;;;;4987439;28;20211;-68
2023/01/04 00:53:13;;;;;;;5.07;3.63;;;2.70;99.90;;;;;;4987551;28;20203;-68
2023/01/04 00:55:40;;;;;;;8.45;4.55;;;2.70;99.90;;;;;;4987000;28;20258;-68
2023/01/04 00:58:07;;;;;;;6.07;4.50;;;2.70;99.90;;;;;;4987603;28;20206;-68
2023/01/04 01:00:34;;;;;;;5.32;3.92;;;2.70;99.90;;;;;;4986962;28;20203;-69
2023/01/04 01:03:01;;;;;;;5.70;4.55;;;2.80;99.90;;;;;;4987609;28;20678;-69
2023/01/04 01:05:28;;;;;;;6.20;5.05;;;2.80;99.90;;;;;;4986412;28;20230;-68
2023/01/04 01:07:56;;;;;;;7.22;5.20;;;2.90;99.90;;;;;;4987699;28;20211;-67
2023/01/04 01:10:23;;;;;;;8.30;4.82;;;2.90;99.90;;;;;;4987367;28;20527;-68
2023/01/04 01:12:50;;;;;;;7.55;4.97;;;3.00;99.90;;;;;;4987531;28;20203;-69
2023/01/04 01:15:16;;;;;;;7.78;5.07;;;3.00;99.90;;;;;;4987623;28;20237;-69
2023/01/04 01:17:43;;;;;;;6.45;4.18;;;3.00;99.90;;;;;;4987120;28;20230;-68
2023/01/04 01:20:10;;;;;;;6.10;4.25;;;3.00;99.90;;;;;;4986963;28;20217;-69
2023/01/04 01:22:37;;;;;;;9.02;4.53;;;3.00;99.90;;;;;;4987309;28;20262;-68
2023/01/04 01:25:06;;;;;;;5.80;4.30;;;3.00;99.90;;;;;;4987263;28;20250;-69
2023/01/04 01:27:33;;;;;;;4.80;3.88;;;3.00;99.90;;;;;;4986954;28;20574;-68
2023/01/04 01:29:59;;;;;;;6.47;4.30;;;3.00;99.90;;;;;;4986447;28;20218;-69
2023/01/04 01:32:26;;;;;;;5.90;4.13;;;3.00;99.90;;;;;;4986581;28;20210;-69
2023/01/04 01:34:53;;;;;;;6.10;4.07;;;3.00;99.90;;;;;;4986662;28;20231;-68
2023/01/04 01:37:19;;;;;;;5.35;4.22;;;3.00;99.90;;;;;;4986870;28;20207;-68
2023/01/04 01:39:46;;;;;;;6.35;4.68;;;3.00;99.90;;;;;;4986676;28;20600;-68
2023/01/04 01:42:21;;;;;;;4.65;3.40;;;3.00;99.90;;;;;;4986603;28;20230;-68
2023/01/04 01:45:02;;;;;;;5.95;4.10;;;3.00;99.90;;;;;;4986790;28;20226;-68
2023/01/04 01:47:37;;;;;;;5.03;3.60;;;3.10;99.90;;;;;;4986358;28;20666;-68
2023/01/04 01:50:15;;;;;;;5.53;3.90;;;3.10;99.90;;;;;;4986185;28;20564;-68
2023/01/04 01:52:42;;;;;;;6.03;4.10;;;3.10;99.90;;;;;;4986229;28;21031;-68
2023/01/04 01:55:11;;;;;;;4.93;3.40;;;3.10;99.90;;;;;;4986549;28;20227;-68
2023/01/04 01:57:40;;;;;;;4.00;3.33;;;3.20;99.90;;;;;;4986883;28;20207;-68
2023/01/04 02:00:10;;;;;;;5.43;4.10;;;3.30;99.90;;;;;;4989766;28;20678;-69
2023/01/04 02:02:39;;;;;;;5.97;3.53;;;3.30;99.90;;;;;;4989512;28;20422;-68
2023/01/04 02:05:06;;;;;;;5.00;3.70;;;3.30;99.90;;;;;;4988656;28;20634;-68
2023/01/04 02:07:34;;;;;;;5.13;3.75;;;3.30;99.90;;;;;;4990248;28;20238;-68
2023/01/04 02:10:01;;;;;;;4.78;3.47;;;3.30;99.90;;;;;;4989558;28;20199;-69
2023/01/04 02:12:27;;;;;;;4.65;3.17;;;3.30;99.90;;;;;;4989911;28;20207;-68
2023/01/04 02:14:55;;;;;;;4.65;3.40;;;3.40;99.90;;;;;;4990381;28;20223;-69
2023/01/04 02:17:35;;;;;;;3.60;2.47;;;3.30;99.90;;;;;;4992730;28;20603;-68
2023/01/04 02:20:32;;;;;;;6.05;2.80;;;3.30;99.90;;;;;;4993494;28;20210;-68
2023/01/04 02:23:41;;;;;;;6.63;3.75;;;3.30;99.90;;;;;;4993906;28;20227;-67
2023/01/04 02:26:40;;;;;;;4.72;3.13;;;3.30;99.90;;;;;;4946235;28;20226;-68
2023/01/04 02:29:52;;;;;;;3.70;3.20;;;3.30;99.90;;;;;;4993386;28;20206;-68
2023/01/04 02:32:30;;;;;;;5.05;3.80;;;3.30;99.90;;;;;;4993638;28;20225;-68
2023/01/04 02:35:04;;;;;;;4.10;3.03;;;3.30;99.90;;;;;;4993904;28;20249;-68
2023/01/04 02:37:40;;;;;;;4.95;2.53;;;3.30;99.90;;;;;;4993500;28;20203;-68
2023/01/04 02:40:14;;;;;;;4.75;3.65;;;3.30;99.90;;;;;;4993133;28;20211;-67
2023/01/04 02:45:38;;;;;;;5.68;4.10;;;3.30;99.90;;;;;;4993366;28;20222;-68
2023/01/04 02:50:54;;;;;;;5.10;3.75;;;3.30;99.90;;;;;;4993918;28;20202;-68
2023/01/04 02:53:27;;;;;;;4.65;3.60;;;3.20;99.90;;;;;;4993555;28;20199;-67
2023/01/04 02:56:06;;;;;;;5.45;4.15;;;3.20;99.90;;;;;;4993480;28;20230;-68
2023/01/04 02:58:58;;;;;;;5.75;3.83;;;3.10;99.90;;;;;;4990089;28;20613;-68
2023/01/04 03:07:27;;;;;;;4.05;3.65;;;3.00;99.90;;;;;;4993377;28;20206;-68
2023/01/04 03:10:06;;;;;;;5.40;3.72;;;3.00;99.90;;;;;;4993056;28;20609;-68
2023/01/04 03:12:37;;;;;;;4.70;3.35;;;3.00;99.90;;;;;;4993009;28;20199;-70
2023/01/04 03:15:12;;;;;;;5.85;3.58;;;3.00;99.90;;;;;;4993526;28;20238;-68
2023/01/04 03:17:42;;;;;;;4.30;3.83;;;3.00;99.90;;;;;;4993213;28;20576;-68
2023/01/04 03:20:12;;;;;;;6.45;3.90;;;2.90;99.90;;;;;;4992759;28;20207;-67
2023/01/04 03:36:49;;;;;;;6.25;3.97;;;2.90;99.90;;;;;;4992904;28;20221;-69
2023/01/04 03:50:50;;;;;;;3.30;2.97;;;2.90;99.90;;;;;;4992679;28;20254;-69
2023/01/04 03:53:20;;;;;;;2.90;2.58;;;2.90;99.90;;;;;;4992510;28;20697;-69
2023/01/04 03:55:48;;;;;;;3.97;3.05;;;2.90;99.90;;;;;;4992339;28;20234;-69
2023/01/04 03:58:15;;;;;;;3.22;2.90;;;2.90;99.90;;;;;;4991973;28;20299;-69
2023/01/04 04:00:42;;;;;;;4.47;3.13;;;3.00;99.90;;;;;;4991956;28;20302;-69
2023/01/04 04:03:09;;;;;;;2.85;2.15;;;3.00;99.90;;;;;;4992236;28;20226;-69
2023/01/04 04:08:27;;;;;;;3.45;2.50;;;3.10;99.90;;;;;;4991550;28;20241;-68
2023/01/04 04:10:56;;;;;;;6.13;2.45;;;3.20;99.90;;;;;;4992287;28;20584;-69
2023/01/04 04:13:23;;;;;;;3.47;2.90;;;3.20;99.90;;;;;;4992073;28;20226;-69
2023/01/04 04:15:52;;;;;;;3.72;2.80;;;3.30;99.90;;;;;;4992104;28;20731;-69
2023/01/04 04:18:19;;;;;;;3.40;2.40;;;3.30;99.90;;;;;;4991962;28;20207;-69
2023/01/04 04:20:45;;;;;;;3.72;2.42;;;3.40;99.90;;;;;;4992229;28;20202;-69
2023/01/04 04:23:12;;;;;;;5.32;3.00;;;3.40;99.90;;;;;;4993071;28;20591;-69
2023/01/04 04:25:40;;;;;;;4.25;2.85;;;3.40;99.90;;;;;;4992724;28;20369;-69
2023/01/04 04:28:07;;;;;;;6.75;2.88;;;3.40;99.90;;;;;;4992108;28;20210;-69
2023/01/04 04:30:33;;;;;;;2.80;2.15;;;3.40;99.90;;;;;;4991114;28;20211;-69
2023/01/04 04:33:00;;;;;;;3.22;2.50;;;3.50;99.90;;;;;;4996749;28;20202;-69
2023/01/04 04:35:27;;;;;;;9.43;2.88;;;3.50;99.90;;;;;;4991552;28;20310;-69
2023/01/04 04:37:53;;;;;;;2.55;2.35;;;3.50;99.90;;;;;;4991812;28;20207;-69
2023/01/04 04:43:08;;;;;;;3.03;2.10;;;3.60;99.90;;;;;;4991506;28;20238;-69
2023/01/04 04:45:35;;;;;;;2.85;2.55;;;3.60;99.90;;;;;;4991318;28;20219;-69
2023/01/04 04:48:02;;;;;;;4.75;2.05;;;3.70;99.90;;;;;;4991658;28;20583;-69
2023/01/04 04:50:28;;;;;;;2.35;2.15;;;3.70;99.90;;;;;;4990658;28;20210;-69
2023/01/04 04:52:55;;;;;;;2.78;2.15;;;3.80;99.90;;;;;;4991550;28;20199;-69
2023/01/04 04:55:22;;;;;;;3.53;2.67;;;3.80;99.90;;;;;;4991756;28;20225;-69
2023/01/04 04:57:48;;;;;;;3.45;2.63;;;3.80;99.90;;;;;;4991657;28;20258;-69
2023/01/04 05:00:17;;;;;;;2.55;2.35;;;3.80;99.90;;;;;;4990775;28;20206;-69
2023/01/04 05:02:44;;;;;;;2.80;2.00;;;3.90;99.90;;;;;;4991056;28;20206;-70
2023/01/04 05:05:10;;;;;;;2.55;2.28;;;3.90;99.90;;;;;;4991302;28;20237;-68
2023/01/04 05:07:37;;;;;;;3.22;2.63;;;3.90;99.90;;;;;;4990952;28;20214;-69
2023/01/04 05:10:05;;;;;;;2.33;2.05;;;3.90;99.90;;;;;;4990745;28;20281;-69
2023/01/04 05:15:17;;;;;;;2.88;2.40;;;4.00;99.90;;;;;;4991102;28;20327;-69
2023/01/04 05:17:44;;;;;;;2.45;1.67;;;4.00;99.90;;;;;;4990732;28;20203;-69
2023/01/04 05:20:11;;;;;;;2.28;2.08;;;4.00;99.90;;;;;;4990970;28;20210;-70
2023/01/04 05:22:38;;;;;;;2.08;1.80;;;4.10;99.90;;;;;;4990834;28;20207;-68
2023/01/04 05:25:05;;;;;;;2.90;2.50;;;4.10;99.90;;;;;;4990870;28;20231;-70
2023/01/04 05:27:31;;;;;;;2.55;1.83;;;4.20;99.90;;;;;;4990910;28;20229;-69
2023/01/04 05:32:44;;;;;;;2.40;2.20;;;4.20;99.90;;;;;;4990916;28;20306;-69
2023/01/04 05:35:10;;;;;;;2.10;1.90;;;4.30;99.90;;;;;;4990760;28;20714;-68
2023/01/04 05:37:37;;;;;;;3.38;2.25;;;4.30;99.90;;;;;;4990768;28;20219;-69
2023/01/04 05:40:04;;;;;;;2.78;2.38;;;4.30;99.90;;;;;;4990545;28;20213;-69
2023/01/04 05:42:31;;;;;;;2.22;2.03;;;4.40;99.90;;;;;;4990636;28;20207;-69
2023/01/04 05:44:58;;;;;;;2.65;2.10;;;4.40;99.90;;;;;;4990714;28;20227;-69
2023/01/04 05:47:26;;;;;;;2.10;1.90;;;4.40;99.90;;;;;;4990663;28;20203;-69
2023/01/04 05:49:54;;;;;;;2.47;2.28;;;4.40;99.90;;;;;;4990460;28;20203;-69
2023/01/04 05:52:21;;;;;;;2.25;2.05;;;4.50;99.90;;;;;;4992949;28;20576;-69
2023/01/04 05:54:47;;;;;;;2.47;2.28;;;4.60;99.90;;;;;;4994465;28;20226;-69
2023/01/04 05:57:15;;;;;;;2.50;2.05;;;4.60;99.90;;;;;;4994689;28;20203;-69
2023/01/04 05:59:41;;;;;;;1.77;1.67;;;4.60;99.90;;;;;;4993759;28;20242;-69
2023/01/04 06:02:14;;;;;;;2.22;1.65;;;4.70;99.90;;;;;;4994580;28;20202;-69
2023/01/04 06:04:40;;;;;;;3.15;1.70;;;4.70;99.90;;;;;;4993972;28;20227;-69
2023/01/04 06:07:08;;;;;;;2.95;2.10;;;4.70;99.90;;;;;;4994221;28;20207;-69
2023/01/04 06:09:35;;;;;;;3.53;2.50;;;4.80;99.90;;;;;;4993567;28;20203;-68
2023/01/04 06:12:02;;;;;;;2.00;1.60;;;4.90;99.90;;;;;;5008888;28;20677;-69
2023/01/04 06:14:28;;;;;;;4.15;2.58;;;4.90;99.90;;;;;;5013054;28;20198;-69
2023/01/04 06:16:55;;;;;;;2.28;2.00;;;4.90;99.90;;;;;;5013321;28;20198;-69
2023/01/04 06:19:22;;;;;;;3.30;2.80;;;4.90;99.90;;;;;;5013106;28;20210;-69
2023/01/04 06:21:49;;;;;;;2.47;2.25;;;4.90;99.90;;;;;;5013429;28;20561;-69
2023/01/04 06:24:19;;;;;;;2.13;1.92;;;4.90;99.90;;;;;;5013209;28;20466;-70
2023/01/04 06:26:46;;;;;;;3.00;1.67;;;4.90;99.90;;;;;;5002996;28;20223;-69
2023/01/04 06:29:13;;;;;;;2.15;1.92;;;4.90;99.90;;;;;;5011927;28;20203;-70
2023/01/04 06:31:40;;;;;;;3.13;2.10;;;5.00;99.90;;;;;;5001499;28;20654;-71
2023/01/04 06:34:07;;;;;;;3.20;1.80;;;4.90;99.90;;;;;;4999072;28;20195;-68
2023/01/04 06:36:34;;;;;;;3.50;2.53;;;4.90;99.90;;;;;;4993371;28;20223;-68
2023/01/04 06:39:01;;;;;;;3.28;2.55;;;5.00;99.90;;;;;;5011570;28;20198;-71
2023/01/04 06:41:29;;;;;;;6.05;1.95;;;5.00;99.90;;;;;;4996205;28;20210;-70
2023/01/04 06:43:56;;;;;;;2.47;2.03;;;5.00;99.90;;;;;;5001246;28;20219;-69
2023/01/04 06:46:22;;;;;;;2.50;1.52;;;5.00;99.90;;;;;;4995657;28;20218;-70
2023/01/04 06:48:49;;;;;;;2.08;1.58;;;5.00;99.90;;;;;;4994162;28;20203;-70
2023/01/04 06:51:16;;;;;;;1.50;1.40;;;5.00;99.90;;;;;;4990662;28;20206;-68
2023/01/04 06:53:42;;;;;;;2.03;1.83;;;5.10;99.90;;;;;;4990916;28;20207;-69
2023/01/04 06:56:09;;;;;;;2.55;1.65;;;5.10;99.90;;;;;;4991069;28;20223;-69
2023/01/04 06:58:37;;;;;;;2.17;1.65;;;5.10;99.90;;;;;;4990403;28;20210;-69
2023/01/04 07:01:05;;;;;;;2.05;1.85;;;5.10;99.90;;;;;;4990896;28;20203;-70
2023/01/04 07:03:32;;;;;;;2.28;1.77;;;5.20;99.90;;;;;;4990977;28;20207;-69
2023/01/04 07:05:58;;;;;;;1.48;1.38;;;5.20;99.90;;;;;;4993663;28;20670;-69
2023/01/04 07:08:25;;;;;;;1.40;1.20;;;5.20;99.90;;;;;;4992642;28;20545;-68
2023/01/04 07:10:52;;;;;;;1.90;1.65;;;5.20;99.90;;;;;;4994083;28;20199;-69
2023/01/04 07:13:19;;;;;;;2.67;1.10;;;5.30;99.90;;;;;;4993596;28;20207;-70
2023/01/04 07:15:47;;;;;;;1.50;1.40;;;5.30;99.90;;;;;;4993331;28;20736;-69
2023/01/04 07:18:14;;;;;;;1.52;1.27;;;5.40;99.90;;;;;;4994098;28;20581;-70
2023/01/04 07:20:41;;;;;;;2.10;1.48;;;5.40;99.90;;;;;;4993548;28;20211;-70
2023/01/04 07:23:08;;;;;;;2.33;1.55;;;5.40;99.90;;;;;;4993268;28;20214;-70
2023/01/04 07:25:35;;;;;;;1.73;1.40;;;5.50;99.90;;;;;;4993080;28;20599;-69
2023/01/04 07:28:02;;;;;;;1.35;1.25;;;5.50;99.90;;;;;;4993494;28;20203;-70
2023/01/04 07:30:29;;;;;;;2.30;1.45;;;5.50;99.90;;;;;;5010880;28;20210;-70
2023/01/04 07:32:57;;;;;;;1.35;1.13;;;5.40;99.90;;;;;;5013084;28;20665;-69
2023/01/04 07:35:24;;;;;;;1.13;1.00;;;5.40;99.90;;;;;;5012521;28;20230;-69
2023/01/04 07:37:51;;;;;;;1.20;1.10;;;5.30;99.90;;;;;;5012449;28;20213;-70
2023/01/04 07:40:19;;;;;;;1.23;1.13;;;5.30;99.90;;;;;;5012014;28;20206;-70
2023/01/04 07:42:54;;;;;;;1.30;1.20;;;5.30;99.90;;;;;;5011410;28;20584;-68
2023/01/04 07:45:20;;;;;;;2.42;1.40;;;5.20;99.90;;;;;;5003322;28;20233;-69
2023/01/04 07:47:47;;;;;;;1.50;1.40;;;5.20;99.90;;;;;;4992271;28;20683;-69
2023/01/04 07:50:15;;;;;;;1.20;1.00;;;5.20;99.90;;;;;;4990814;28;20592;-69
2023/01/04 07:52:42;;;;;;;1.75;1.50;;;5.10;99.90;;;;;;5010449;28;20525;-69
2023/01/04 07:55:09;;;;;;;1.90;1.77;;;5.10;99.90;;;;;;4991968;28;20580;-69
2023/01/04 07:57:36;;;;;;;3.92;1.33;;;5.10;99.90;;;;;;4992149;28;20203;-70
2023/01/04 08:00:04;;;;;;;3.30;1.33;;;5.10;99.90;;;;;;4992154;28;20467;-69
2023/01/04 08:02:30;;;;;;;2.42;1.30;;;5.00;99.90;;;;;;4992358;28;20203;-69
2023/01/04 08:04:57;;;;;;;1.83;1.55;;;5.00;99.90;;;;;;4992221;28;20706;-69
2023/01/04 08:07:25;;;;;;;1.40;1.30;;;5.00;99.90;;;;;;4992307;28;20207;-69
2023/01/04 08:09:52;;;;;;;1.30;1.15;;;5.00;99.90;;;;;;4991718;28;20297;-69
2023/01/04 08:12:18;;;;;;;2.38;1.33;;;5.00;99.90;;;;;;4992540;28;20207;-68
2023/01/04 08:14:45;;;;;;;2.25;1.40;;;5.00;99.90;;;;;;4991407;28;20205;-70
2023/01/04 08:17:12;;;;;;;1.85;1.20;;;5.10;99.90;;;;;;4992388;28;20577;-69
2023/01/04 08:19:39;;;;;;;4.45;1.77;;;5.10;99.90;;;;;;4991581;28;20577;-70
2023/01/04 08:22:05;;;;;;;1.27;0.95;;;5.10;99.90;;;;;;4992235;28;20210;-71
2023/01/04 08:24:33;;;;;;;1.27;1.00;;;5.10;99.90;;;;;;4991500;28;20588;-69
2023/01/04 08:27:00;;;;;;;2.90;1.77;;;5.10;99.90;;;;;;4992099;28;20210;-69
2023/01/04 08:29:27;;;;;;;1.98;1.60;;;5.10;99.90;;;;;;4991308;28;20219;-69
2023/01/04 08:31:53;;;;;;;2.58;1.70;;;5.10;99.90;;;;;;4992385;28;20199;-69
2023/01/04 08:34:20;;;;;;;1.70;1.20;;;5.10;99.90;;;;;;4991764;28;20199;-69
2023/01/04 08:36:49;;;;;;;1.48;1.27;;;5.10;99.90;;;;;;4991773;28;20227;-69
2023/01/04 08:39:16;;;;;;;2.58;1.70;;;5.10;99.90;;;;;;4992043;28;20203;-69
2023/01/04 08:41:53;;;;;;;1.50;1.38;;;5.10;99.90;;;;;;4991572;28;20493;-70
2023/01/04 08:44:21;;;;;;;1.40;1.15;;;5.20;99.90;;;;;;4991762;28;20219;-69
2023/01/04 08:46:48;;;;;;;2.03;1.08;;;5.20;99.90;;;;;;4991546;28;20234;-69
2023/01/04 08:49:15;;;;;;;1.90;1.27;;;5.30;99.90;;;;;;4991001;28;20226;-69
2023/01/04 08:51:42;;;;;;;5.47;1.23;;;5.30;99.90;;;;;;4991092;28;20572;-69
2023/01/04 08:54:09;;;;;;;1.55;1.05;;;5.30;99.90;;;;;;4991634;28;20222;-69
2023/01/04 08:56:36;;;;;;;2.65;1.30;;;5.30;99.90;;;;;;4991096;28;20229;-69
2023/01/04 08:59:05;;;;;;;1.50;1.10;;;5.30;99.90;;;;;;4990944;28;20211;-69
2023/01/04 09:01:32;;;;;;;2.20;1.63;;;5.40;99.90;;;;;;4990854;28;20214;-69
2023/01/04 09:03:59;;;;;;;1.52;1.42;;;5.40;99.90;;;;;;4991651;28;20666;-68
2023/01/04 09:06:27;;;;;;;1.13;1.02;;;5.50;99.90;;;;;;4992929;28;20441;-69
2023/01/04 09:08:56;;;;;;;4.40;1.75;;;5.50;99.90;;;;;;4991189;28;20213;-68
2023/01/04 09:11:23;;;;;;;2.03;1.50;;;5.50;99.90;;;;;;4990784;28;20210;-69
2023/01/04 09:13:54;;;;;;;1.77;1.40;;;5.50;99.90;;;;;;4990881;28;20464;-69
2023/01/04 09:16:23;;;;;;;1.08;0.88;;;5.50;99.90;;;;;;4996216;28;20312;-68
2023/01/04 09:18:50;;;;;;;1.13;1.00;;;5.60;99.90;;;;;;5010084;28;20228;-69
2023/01/04 09:21:20;;;;;;;1.55;1.45;;;5.60;99.90;;;;;;5010844;28;20624;-68
2023/01/04 09:23:48;;;;;;;1.15;0.90;;;5.70;99.90;;;;;;5000263;28;20210;-70
2023/01/04 09:26:17;;;;;;;1.50;1.30;;;5.70;99.90;;;;;;4988462;28;20231;-69
2023/01/04 09:28:44;;;;;;;1.45;1.25;;;5.70;99.90;;;;;;4992954;28;20229;-68
2023/01/04 09:31:13;;;;;;;1.45;1.20;;;5.80;99.90;;;;;;4994506;28;20219;-69
2023/01/04 09:33:42;;;;;;;1.65;1.13;;;5.90;99.90;;;;;;4993425;28;20456;-69
2023/01/04 09:36:13;;;;;;;1.38;1.20;;;5.90;99.90;;;;;;4994066;28;20215;-69
2023/01/04 09:38:40;;;;;;;1.77;1.10;;;5.90;99.90;;;;;;4992905;28;20666;-69
2023/01/04 09:41:15;;;;;;;1.27;1.17;;;6.00;99.90;;;;;;4994230;28;20199;-71
2023/01/04 09:43:46;;;;;;;1.20;0.80;;;6.10;99.90;;;;;;4993753;28;20290;-68
2023/01/04 09:46:22;;;;;;;2.55;1.13;;;6.20;99.90;;;;;;4993645;28;20241;-69
2023/01/04 09:48:56;;;;;;;1.45;1.17;;;6.20;99.90;;;;;;4993068;28;20202;-70
2023/01/04 09:51:30;;;;;;;1.10;1.00;;;6.30;99.90;;;;;;4993315;28;20210;-70
2023/01/04 09:54:00;;;;;;;1.00;0.90;;;6.30;99.90;;;;;;4993142;28;20207;-68
2023/01/04 09:56:31;;;;;;;1.50;1.00;;;6.40;99.90;;;;;;4993461;28;20265;-70
2023/01/04 09:58:59;;;;;;;0.98;0.88;;;6.40;99.90;;;;;;4993037;28;20203;-69
2023/01/04 10:01:32;;;;;;;2.05;1.10;;;6.40;99.90;;;;;;4992834;28;20207;-69
2023/01/04 10:04:10;;;;;;;1.45;1.10;;;6.40;99.90;;;;;;4993284;28;20215;-69
2023/01/04 10:06:38;;;;;;;1.10;0.80;;;6.50;99.90;;;;;;4993086;28;20215;-69
2023/01/04 10:09:10;;;;;;;1.23;0.95;;;6.60;99.90;;;;;;4993264;28;20233;-69
2023/01/04 10:11:50;;;;;;;1.38;1.02;;;6.70;99.90;;;;;;4994164;28;20206;-68
2023/01/04 10:14:32;;;;;;;2.13;0.90;;;6.70;99.90;;;;;;4994116;28;20207;-69
2023/01/04 10:17:11;;;;;;;1.38;0.80;;;6.80;99.90;;;;;;4992669;28;20239;-69
2023/01/04 10:19:54;;;;;;;0.85;0.80;;;6.70;99.90;;;;;;4989663;28;20214;-68
2023/01/04 10:22:32;;;;;;;1.15;0.93;;;6.80;99.90;;;;;;4993915;28;20206;-68
2023/01/04 10:25:11;;;;;;;1.10;0.90;;;6.80;99.90;;;;;;4993425;28;20615;-69
2023/01/04 10:27:49;;;;;;;1.75;1.20;;;6.80;99.90;;;;;;4992573;28;20222;-69
2023/01/04 10:30:29;;;;;;;0.93;0.80;;;6.90;99.90;;;;;;4994914;28;20713;-69
2023/01/04 10:33:04;;;;;;;1.27;0.80;;;6.90;99.90;;;;;;5009755;28;20206;-69
2023/01/04 10:35:35;;;;;;;2.35;1.25;;;6.90;99.90;;;;;;5011549;28;20214;-69
2023/01/04 10:38:10;;;;;;;1.10;0.90;;;6.90;99.90;;;;;;5012065;28;20569;-71
2023/01/04 10:40:39;;;;;;;1.38;0.93;;;6.90;99.90;;;;;;5010501;28;20199;-70
2023/01/04 10:43:13;;;;;;;1.00;0.90;;;6.90;99.90;;;;;;5009608;28;20202;-70
2023/01/04 10:45:46;;;;;;;1.77;1.05;;;7.00;99.90;;;;;;5010805;28;20262;-70
2023/01/04 10:48:22;;;;;;;1.20;0.85;;;7.00;99.90;;;;;;5010422;28;20237;-69
2023/01/04 10:50:55;;;;;;;2.35;1.15;;;7.10;99.90;;;;;;5011877;28;20202;-70
2023/01/04 10:53:27;;;;;;;1.00;0.80;;;7.10;99.90;;;;;;5012231;28;20268;-69
2023/01/04 10:56:01;;;;;;;1.00;0.90;;;7.20;99.90;;;;;;5009022;28;20225;-70
2023/01/04 10:58:34;;;;;;;1.25;0.80;;;7.30;99.90;;;;;;5012691;28;20388;-69
2023/01/04 11:01:06;;;;;;;1.63;1.08;;;7.30;99.90;;;;;;5002452;28;20290;-69
2023/01/04 11:03:37;;;;;;;1.92;1.05;;;7.40;99.90;;;;;;4994271;28;20703;-69
2023/01/04 11:06:12;;;;;;;1.75;1.10;;;7.40;99.90;;;;;;4992142;28;20231;-68
2023/01/04 11:08:47;;;;;;;1.20;0.90;;;7.50;99.90;;;;;;4992294;28;20210;-68
2023/01/04 11:11:19;;;;;;;1.20;1.00;;;7.50;99.90;;;;;;4991819;28;20700;-69
2023/01/04 11:13:45;;;;;;;1.10;0.90;;;7.50;99.90;;;;;;4991841;28;20607;-68
2023/01/04 11:16:12;;;;;;;1.17;1.08;;;7.50;99.90;;;;;;4991761;28;20223;-68
2023/01/04 11:18:42;;;;;;;1.10;0.98;;;7.50;99.90;;;;;;4991044;28;20215;-69
2023/01/04 11:21:14;;;;;;;0.80;0.80;;;7.60;99.90;;;;;;4991916;28;20592;-68
2023/01/04 11:23:40;;;;;;;1.38;0.88;;;7.60;99.90;;;;;;4991913;28;20233;-68
2023/01/04 11:26:13;;;;;;;2.50;1.38;;;7.60;99.90;;;;;;4989592;28;20705;-68
2023/01/04 11:28:45;;;;;;;0.90;0.80;;;7.60;99.90;;;;;;4990772;28;20698;-68
2023/01/04 11:31:22;;;;;;;1.60;1.15;;;7.70;99.90;;;;;;4991596;28;20634;-68
2023/01/04 11:33:55;;;;;;;1.95;1.10;;;7.70;99.90;;;;;;4991595;28;20265;-69
2023/01/04 11:36:35;;;;;;;1.55;1.10;;;7.70;99.90;;;;;;4991435;28;20219;-69
2023/01/04 11:39:04;;;;;;;3.90;1.02;;;7.80;99.90;;;;;;4991055;28;20210;-68
2023/01/04 11:41:30;;;;;;;0.90;0.80;;;7.80;99.90;;;;;;4990228;28;20301;-68
2023/01/04 11:43:58;;;;;;;1.00;0.80;;;7.80;99.90;;;;;;4991532;28;20206;-68
2023/01/04 11:46:26;;;;;;;1.00;0.90;;;7.90;99.90;;;;;;4991137;28;20235;-68
2023/01/04 11:48:53;;;;;;;1.02;0.90;;;7.90;99.90;;;;;;4990259;28;20207;-68
2023/01/04 11:51:38;;;;;;;1.27;0.93;;;7.90;99.90;;;;;;4990786;28;20207;-68
2023/01/04 11:54:16;;;;;;;0.95;0.75;;;7.90;99.90;;;;;;4992730;28;20685;-69
2023/01/04 11:56:58;;;;;;;1.10;1.00;;;7.90;99.90;;;;;;4993923;28;20696;-69
2023/01/04 11:59:25;;;;;;;1.45;1.00;;;7.90;99.90;;;;;;4991633;28;20210;-68
2023/01/04 12:02:11;;;;;;;1.10;1.00;;;7.90;99.90;;;;;;4992055;28;20210;-68
2023/01/04 12:04:38;;;;;;;1.48;1.10;;;8.00;99.90;;;;;;4991628;28;20230;-69
2023/01/04 12:07:17;;;;;;;1.40;1.20;;;8.00;99.90;;;;;;4992508;28;20273;-70
2023/01/04 12:09:43;;;;;;;1.48;1.00;;;8.10;99.90;;;;;;4991109;28;20233;-69
2023/01/04 12:12:13;;;;;;;1.20;1.00;;;8.10;99.90;;;;;;4992308;28;20203;-69
2023/01/04 12:14:47;;;;;;;1.00;0.80;;;8.10;99.90;;;;;;5001412;28;20229;-69
2023/01/04 12:17:18;;;;;;;3.60;1.20;;;8.10;99.90;;;;;;5009804;28;20206;-69
2023/01/04 12:19:47;;;;;;;1.30;1.17;;;8.10;99.90;;;;;;5009337;28;20206;-69
2023/01/04 12:22:22;;;;;;;1.23;1.00;;;8.10;99.90;;;;;;5010288;28;20510;-69
2023/01/04 12:24:50;;;;;;;1.20;1.10;;;8.20;99.90;;;;;;5010706;28;20704;-69
2023/01/04 12:27:17;;;;;;;0.80;0.70;;;8.20;99.90;;;;;;5010836;28;20740;-69
2023/01/04 12:29:54;;;;;;;1.65;1.00;;;8.20;99.90;;;;;;5004924;28;20316;-69
2023/01/04 12:32:44;;;;;;;1.42;0.85;;;8.20;99.90;;;;;;4994354;28;20262;-69
2023/01/04 12:36:01;;;;;;;1.35;1.00;;;8.20;99.90;;;;;;5005563;28;20310;-70
2023/01/04 12:39:00;;;;;;;1.50;1.10;;;8.30;99.90;;;;;;4997735;28;20682;-69
2023/01/04 12:42:14;;;;;;;1.00;0.90;;;8.30;99.90;;;;;;4953134;28;20225;-70
2023/01/04 12:45:01;;;;;;;1.27;0.90;;;8.30;99.90;;;;;;4989287;28;20199;-69
2023/01/04 12:50:33;;;;;;;1.58;0.98;;;8.40;99.90;;;;;;5009663;28;20200;-69
2023/01/04 12:53:03;;;;;;;0.90;0.80;;;8.40;99.90;;;;;;5010168;28;20260;-70
2023/01/04 12:55:58;;;;;;;1.20;1.10;;;8.40;99.90;;;;;;5010295;28;20229;-69
2023/01/04 12:59:10;;;;;;;2.75;1.10;;;8.40;99.90;;;;;;5009465;28;20272;-70
2023/01/04 13:01:37;;;;;;;1.33;1.02;;;8.40;99.90;;;;;;5009518;28;20245;-70
2023/01/04 13:04:30;;;;;;;2.30;1.30;;;8.40;99.90;;;;;;5010160;28;20207;-70
2023/01/04 13:07:08;;;;;;;1.55;1.10;;;8.50;99.90;;;;;;5009775;28;20222;-70
2023/01/04 13:09:48;;;;;;;1.58;1.13;;;8.50;99.90;;;;;;5009446;28;20202;-70
2023/01/04 13:12:32;;;;;;;1.50;1.25;;;8.50;99.90;;;;;;5010645;28;20206;-69
2023/01/04 13:15:04;;;;;;;1.10;0.90;;;8.50;99.90;;;;;;5011108;28;20226;-69
2023/01/04 13:17:38;;;;;;;1.63;1.00;;;8.60;99.90;;;;;;5009510;28;20669;-70
2023/01/04 13:20:14;;;;;;;1.30;1.13;;;8.60;99.90;;;;;;5003494;28;20219;-71
2023/01/04 13:22:49;;;;;;;1.58;1.13;;;8.60;99.90;;;;;;4989086;28;20222;-71
2023/01/04 13:25:17;;;;;;;1.30;0.98;;;8.60;99.90;;;;;;4989247;28;20281;-70
2023/01/04 13:27:57;;;;;;;1.23;0.88;;;8.60;99.90;;;;;;4989622;28;20210;-70
2023/01/04 13:30:33;;;;;;;3.78;1.23;;;8.70;99.90;;;;;;5001184;28;20236;-71
2023/01/04 13:33:07;;;;;;;1.45;1.00;;;8.70;99.90;;;;;;5009691;28;20233;-71
2023/01/04 13:35:33;;;;;;;1.58;1.05;;;8.70;99.90;;;;;;5008794;28;20233;-69
2023/01/04 13:38:10;;;;;;;1.58;1.05;;;8.80;99.90;;;;;;5026115;22;20230;-94
2023/01/04 13:40:44;;;;;;;1.50;0.90;;;8.80;99.90;;;;;;5011367;28;20222;-94
2023/01/04 13:43:54;;;;;;;1.00;0.85;;;8.90;99.90;;;;;;5001240;28;20225;-94
2023/01/04 13:46:26;;;;;;;1.80;1.13;;;8.90;99.90;;;;;;5006609;28;20219;-94
2023/01/04 13:49:02;;;;;;;1.42;1.00;;;8.90;99.90;;;;;;5013854;28;20223;-93
2023/01/04 13:51:35;;;;;;;1.00;0.88;;;9.00;99.90;;;;;;5012332;28;20271;-93
2023/01/04 13:54:05;;;;;;;0.80;0.70;;;9.00;99.90;;;;;;5015677;28;20239;-93
2023/01/04 13:56:34;;;;;;;1.17;0.85;;;9.10;99.90;;;;;;5019793;28;20205;-92
2023/01/04 13:59:04;;;;;;;0.82;0.77;;;9.20;99.90;;;;;;5034556;28;20190;-95
2023/01/04 14:01:37;;;;;;;0.90;0.80;;;9.20;99.90;;;;;;5014058;28;20234;-93
2023/01/04 14:04:06;;;;;;;0.90;0.80;;;9.20;99.90;;;;;;5007436;28;20203;-94
2023/01/04 14:06:39;;;;;;;0.95;0.80;;;9.20;99.90;;;;;;5003617;28;20223;-93
2023/01/04 14:09:17;;;;;;;1.15;0.90;;;9.20;99.90;;;;;;5000380;28;20230;-92